DAAT/TMR METAR and TAF weather

Enter ICAO airport designator
Station Type Date Time Source
DAAT METAR 2022/08/12 14:00 UTC NOAA

DAAT 121400Z 33007KT 280V020 9999 FEW046 SCT050 33/01 Q1020


Station Type Date Time Source
DAAT Decoded METAR 2022/08/12 14:00 UTC NOAA

Tamanrasset / Aguenna, Algeria (DAAT) 22-49N 005-28E
Aug 12, 2022 - 10:00 AM EDT / 2022.08.12 1400 UTC
Wind: from the NNW (330 degrees) at 8 MPH (7 KT) (direction variable):0
Visibility: greater than 7 mile(s):0
Sky conditions: partly cloudy
Temperature: 91 F (33 C)
Dew Point: 33 F (1 C)
Relative Humidity: 13%
Pressure (altimeter): 30.12 in. Hg (1020 hPa)
ob: DAAT 121400Z 33007KT 280V020 9999 FEW046 SCT050 33/01 Q1020
cycle: 14

Station Type Date Time Source
DAAT TAF 2022/08/12 12:33 UTC NOAA

TAF DAAT 121100Z 1212/1312 08008KT 9999 SCT046 PROB30
TEMPO 1212/1216 4000 HZ PROB40
TEMPO 1214/1218 VRB15G30KT TS FEW040CB

Example: see airport list